createdAt,value
2017-04-23T00:00:02.814Z,1025.08
2017-04-23T00:05:02.872Z,1025.05
2017-04-23T00:10:03.565Z,1025.05
2017-04-23T00:15:03.195Z,1025.05
2017-04-23T00:20:02.887Z,1025.04
2017-04-23T00:25:03.525Z,1025.06
2017-04-23T00:30:03.206Z,1025.03
2017-04-23T00:35:02.895Z,1024.97
2017-04-23T00:40:03.640Z,1024.97
2017-04-23T00:45:03.351Z,1024.94
2017-04-23T00:50:03.019Z,1024.95
2017-04-23T00:55:03.665Z,1024.92
2017-04-23T01:01:06.515Z,1024.92
2017-04-23T01:05:03.099Z,1024.88
2017-04-23T01:10:02.956Z,1024.9
2017-04-23T01:15:03.594Z,1024.77
2017-04-23T01:20:03.388Z,1024.81
2017-04-23T01:25:03.196Z,1024.79
2017-04-23T01:30:02.849Z,1024.78
2017-04-23T01:35:03.618Z,1024.66
2017-04-23T01:40:03.415Z,1024.75
2017-04-23T01:45:03.051Z,1024.77
2017-04-23T01:50:02.660Z,1024.69
2017-04-23T01:55:03.541Z,1024.73
2017-04-23T02:00:03.344Z,1024.65
2017-04-23T02:05:03.084Z,1024.7
2017-04-23T02:10:02.764Z,1024.61
2017-04-23T02:15:03.410Z,1024.61
2017-04-23T02:20:03.022Z,1024.73
2017-04-23T02:25:02.694Z,1024.74
2017-04-23T02:30:03.406Z,1024.7
2017-04-23T02:35:03.196Z,1024.69
2017-04-23T02:40:02.937Z,1024.65
2017-04-23T02:45:02.707Z,1024.63
2017-04-23T02:50:03.436Z,1024.73
2017-04-23T02:55:03.132Z,1024.79
2017-04-23T03:00:02.893Z,1024.75
2017-04-23T03:05:03.502Z,1024.73
2017-04-23T03:10:03.345Z,1024.78
2017-04-23T03:15:02.943Z,1024.85
2017-04-23T03:20:02.727Z,1024.9
2017-04-23T03:25:03.354Z,1024.72
2017-04-23T03:30:03.035Z,1024.79
2017-04-23T03:35:03.676Z,1024.84
2017-04-23T03:40:03.462Z,1024.82
2017-04-23T03:45:03.133Z,1024.82
2017-04-23T03:50:02.815Z,1024.86
2017-04-23T03:55:03.566Z,1024.81
2017-04-23T04:00:18.256Z,1024.88
2017-04-23T04:05:02.952Z,1024.89
2017-04-23T04:10:03.576Z,1024.95
2017-04-23T04:15:03.214Z,1025.03
2017-04-23T04:20:03.001Z,1024.88
2017-04-23T04:25:02.772Z,1024.87
2017-04-23T04:30:03.515Z,1024.78
2017-04-23T04:35:03.492Z,1024.88
2017-04-23T04:40:03.148Z,1024.89
2017-04-23T04:45:02.783Z,1024.99
2017-04-23T04:50:03.427Z,1025.01
2017-04-23T04:55:03.090Z,1025.18
2017-04-23T05:00:02.647Z,1025.25
2017-04-23T05:05:03.302Z,1025.31
2017-04-23T05:10:02.917Z,1025.26
2017-04-23T05:15:03.617Z,1025.12
2017-04-23T05:20:03.296Z,1025.15
2017-04-23T05:25:02.968Z,1025.22
2017-04-23T05:30:02.669Z,1025.24
2017-04-23T05:35:03.616Z,1025.17
2017-04-23T05:40:03.435Z,1025.31
2017-04-23T05:45:03.247Z,1025.27
2017-04-23T05:50:03.004Z,1025.3
2017-04-23T05:55:03.631Z,1025.34
2017-04-23T06:00:03.228Z,1025.41
2017-04-23T06:05:02.905Z,1025.44
2017-04-23T06:10:02.753Z,1025.39
2017-04-23T06:15:03.395Z,1025.43
2017-04-23T06:20:03.027Z,1025.46
2017-04-23T06:25:02.884Z,1025.53
2017-04-23T06:30:02.652Z,1025.53
2017-04-23T06:35:03.424Z,1025.53
2017-04-23T06:40:03.157Z,1025.6
2017-04-23T06:45:02.903Z,1025.65
2017-04-23T06:50:03.626Z,1025.6
2017-04-23T06:55:03.492Z,1025.62
2017-04-23T07:00:03.117Z,1025.57
2017-04-23T07:05:02.888Z,1025.65
2017-04-23T07:10:03.633Z,1025.67
2017-04-23T07:15:03.501Z,1025.71
2017-04-23T07:20:03.302Z,1025.62
2017-04-23T07:25:02.943Z,1025.66
2017-04-23T07:30:02.734Z,1025.67
2017-04-23T07:35:03.411Z,1025.68
2017-04-23T07:40:03.287Z,1025.73
2017-04-23T07:45:03.076Z,1025.76
2017-04-23T07:50:02.976Z,1025.68
2017-04-23T07:55:02.780Z,1025.83
2017-04-23T08:00:03.478Z,1025.81
2017-04-23T08:05:03.237Z,1025.85
2017-04-23T08:10:03.002Z,1025.79
2017-04-23T08:15:02.741Z,1025.75
2017-04-23T08:20:03.440Z,1025.72
2017-04-23T08:25:03.282Z,1025.7
2017-04-23T08:30:02.976Z,1025.75
2017-04-23T08:35:03.088Z,1025.93
2017-04-23T08:40:02.800Z,1025.94
2017-04-23T08:45:03.409Z,1025.93
2017-04-23T08:50:03.269Z,1025.9
2017-04-23T08:55:02.869Z,1025.83
2017-04-23T09:00:03.536Z,1025.91
2017-04-23T09:05:03.197Z,1025.81
2017-04-23T09:10:03.271Z,1025.78
2017-04-23T09:15:03.003Z,1025.88
2017-04-23T09:20:03.625Z,1025.9
2017-04-23T09:25:02.552Z,1026.07
2017-04-23T09:30:03.560Z,1026.06
2017-04-23T09:35:03.524Z,1026.03
2017-04-23T09:40:03.642Z,1025.99
2017-04-23T09:45:03.605Z,1025.85
2017-04-23T09:50:03.614Z,1025.73
2017-04-23T09:55:03.449Z,1025.85
2017-04-23T10:00:03.706Z,1025.71
2017-04-23T10:05:03.365Z,1025.76
2017-04-23T10:10:03.243Z,1025.85
2017-04-23T10:15:03.042Z,1025.7
2017-04-23T10:20:02.749Z,1025.69
2017-04-23T10:25:03.665Z,1025.59
2017-04-23T10:30:02.770Z,1025.55
2017-04-23T10:35:02.974Z,1025.59
2017-04-23T10:40:03.208Z,1025.62
2017-04-23T10:45:03.218Z,1025.66
2017-04-23T10:50:03.241Z,1025.69
2017-04-23T10:55:02.965Z,1025.61
2017-04-23T11:00:03.533Z,1025.55
2017-04-23T11:05:03.552Z,1025.46
2017-04-23T11:10:03.323Z,1025.53
2017-04-23T11:15:02.952Z,1025.57
2017-04-23T11:20:03.555Z,1025.59
2017-04-23T11:25:03.162Z,1025.72
2017-04-23T11:30:02.913Z,1025.73
2017-04-23T11:35:03.591Z,1025.63
2017-04-23T11:40:03.235Z,1025.61
2017-04-23T11:45:02.867Z,1025.61
2017-04-23T11:50:03.521Z,1025.52
2017-04-23T11:55:03.153Z,1025.46
2017-04-23T12:00:02.733Z,1025.38
2017-04-23T12:05:03.404Z,1025.31
2017-04-23T12:10:03.095Z,1025.27
2017-04-23T12:15:02.966Z,1025.31
2017-04-23T12:20:03.708Z,1025.26
2017-04-23T12:25:03.426Z,1025.2
2017-04-23T12:30:03.086Z,1025.25
2017-04-23T12:35:02.928Z,1025.14
2017-04-23T12:40:02.950Z,1025.2
2017-04-23T12:45:03.145Z,1025.15
2017-04-23T12:50:03.283Z,1025.16
2017-04-23T12:55:03.074Z,1025.07
2017-04-23T13:00:03.498Z,1024.95
2017-04-23T13:05:03.656Z,1025.03
2017-04-23T13:10:03.546Z,1025.03
2017-04-23T13:15:03.689Z,1025.07
2017-04-23T13:20:02.812Z,1025
2017-04-23T13:25:03.792Z,1024.94
2017-04-23T13:30:03.501Z,1024.93
2017-04-23T13:35:03.315Z,1024.93
2017-04-23T13:40:03.127Z,1025.01
2017-04-23T13:45:02.872Z,1025.02
2017-04-23T13:50:02.971Z,1025.01
2017-04-23T13:55:03.776Z,1025.04
2017-04-23T14:00:03.621Z,1024.98
2017-04-23T14:05:03.751Z,1025
2017-04-23T14:10:04.299Z,1025
2017-04-23T14:15:03.315Z,1024.97
2017-04-23T14:20:04.075Z,1024.96
2017-04-23T14:25:03.594Z,1024.83
2017-04-23T14:30:03.455Z,1024.81
2017-04-23T14:35:03.784Z,1024.81
2017-04-23T14:40:03.555Z,1024.79
2017-04-23T14:45:03.203Z,1024.8
2017-04-23T14:50:03.405Z,1024.79
2017-04-23T14:55:03.218Z,1024.75
2017-04-23T15:00:03.199Z,1024.72
2017-04-23T15:05:03.030Z,1024.64
2017-04-23T15:10:03.290Z,1024.61
2017-04-23T15:15:03.474Z,1024.56
2017-04-23T15:20:02.855Z,1024.49
2017-04-23T15:25:03.502Z,1024.63
2017-04-23T15:30:03.568Z,1024.64
2017-04-23T15:35:03.201Z,1024.64
2017-04-23T15:40:03.079Z,1024.61
2017-04-23T15:45:02.792Z,1024.52
2017-04-23T15:50:03.376Z,1024.58
2017-04-23T15:55:03.164Z,1024.49
2017-04-23T16:00:02.763Z,1024.52
2017-04-23T16:05:03.527Z,1024.47
2017-04-23T16:10:03.196Z,1024.46
2017-04-23T16:15:02.852Z,1024.46
2017-04-23T16:20:03.672Z,1024.51
2017-04-23T16:25:03.283Z,1024.47
2017-04-23T16:30:02.970Z,1024.55
2017-04-23T16:35:03.591Z,1024.49
2017-04-23T16:40:03.206Z,1024.53
2017-04-23T16:45:02.898Z,1024.47
2017-04-23T16:50:03.590Z,1024.42
2017-04-23T16:55:03.237Z,1024.47
2017-04-23T17:00:02.788Z,1024.43
2017-04-23T17:05:03.469Z,1024.46
2017-04-23T17:10:03.189Z,1024.35
2017-04-23T17:15:02.783Z,1024.39
2017-04-23T17:20:03.526Z,1024.36
2017-04-23T17:25:03.211Z,1024.36
2017-04-23T17:30:02.839Z,1024.37
2017-04-23T17:35:03.436Z,1024.37
2017-04-23T17:40:03.035Z,1024.34
2017-04-23T17:45:02.708Z,1024.3
2017-04-23T17:50:03.319Z,1024.28
2017-04-23T17:55:02.921Z,1024.2
2017-04-23T18:00:03.589Z,1024.21
2017-04-23T18:05:03.519Z,1024.23
2017-04-23T18:10:03.275Z,1024.13
2017-04-23T18:15:02.865Z,1024.13
2017-04-23T18:20:03.563Z,1024.08
2017-04-23T18:25:03.413Z,1024.09
2017-04-23T18:30:03.039Z,1024.07
2017-04-23T18:35:02.687Z,1024
2017-04-23T18:40:03.097Z,1024
2017-04-23T18:45:03.495Z,1023.98
2017-04-23T18:50:03.222Z,1024
2017-04-23T18:55:02.743Z,1023.97
2017-04-23T19:00:03.452Z,1023.99
2017-04-23T19:05:03.234Z,1024
2017-04-23T19:10:02.978Z,1024.14
2017-04-23T19:15:03.710Z,1024.12
2017-04-23T19:20:03.492Z,1024.15
2017-04-23T19:25:03.074Z,1024.16
2017-04-23T19:30:02.862Z,1024.18
2017-04-23T19:35:03.666Z,1024.22
2017-04-23T19:40:03.361Z,1024.23
2017-04-23T19:45:03.095Z,1024.26
2017-04-23T19:50:02.804Z,1024.18
2017-04-23T19:55:03.492Z,1024.16
2017-04-23T20:00:03.096Z,1024.12
2017-04-23T20:05:02.704Z,1024.13
2017-04-23T20:10:03.339Z,1024.11
2017-04-23T20:15:02.902Z,1024.08
2017-04-23T20:20:03.695Z,1024.04
2017-04-23T20:25:03.268Z,1024.03
2017-04-23T20:30:02.941Z,1023.9
2017-04-23T20:35:03.577Z,1023.89
2017-04-23T20:40:03.198Z,1023.88
2017-04-23T20:45:02.959Z,1023.8
2017-04-23T20:50:03.624Z,1023.75
2017-04-23T20:55:03.300Z,1023.71
2017-04-23T21:00:02.850Z,1023.59
2017-04-23T21:05:03.482Z,1023.54
2017-04-23T21:10:03.269Z,1023.5
2017-04-23T21:15:02.899Z,1023.5
2017-04-23T21:20:03.483Z,1023.46
2017-04-23T21:25:03.181Z,1023.42
2017-04-23T21:30:02.810Z,1023.37
2017-04-23T21:35:03.392Z,1023.27
2017-04-23T21:40:02.994Z,1023.27
2017-04-23T21:45:02.725Z,1023.23
2017-04-23T21:50:03.444Z,1023.2
2017-04-23T21:55:02.997Z,1023.17
2017-04-23T22:00:02.709Z,1023.14
2017-04-23T22:05:03.332Z,1023.13
2017-04-23T22:10:03.038Z,1023.07
2017-04-23T22:15:02.737Z,1023.05
2017-04-23T22:20:03.484Z,1022.98
2017-04-23T22:25:03.063Z,1022.95
2017-04-23T22:30:02.743Z,1022.88
2017-04-23T22:35:06.438Z,1022.8
2017-04-23T22:40:03.135Z,1022.78
2017-04-23T22:45:02.715Z,1022.75
2017-04-23T22:50:03.440Z,1022.65
2017-04-23T22:55:03.132Z,1022.6
2017-04-23T23:00:33.939Z,1022.6
2017-04-23T23:05:02.714Z,1022.45
2017-04-23T23:10:03.389Z,1022.41
2017-04-23T23:15:02.972Z,1022.34
2017-04-23T23:20:03.681Z,1022.29
2017-04-23T23:25:03.407Z,1022.22
2017-04-23T23:30:03.160Z,1022.14
2017-04-23T23:35:02.802Z,1022
2017-04-23T23:40:03.455Z,1021.93
2017-04-23T23:45:03.078Z,1021.92
2017-04-23T23:50:03.645Z,1021.83
2017-04-23T23:55:03.402Z,1021.69
